Time;durP1;ratioP1;P1;durP2;ratioP2;P2;SDS_P1;SDS_P2;PMS_P1;PMS_P2;Temp;Humidity;BMP_temperature;BMP_pressure;BME280_temperature;BME280_humidity;BME280_pressure;Samples;Min_cycle;Max_cycle;Signal;HPM_P1;HPM_P2
2021/03/04 00:00:16;;;;;;;23.88;9.98;;;10.90;82.30;;;;;;4974901;28;20042;-78
2021/03/04 00:02:42;;;;;;;20.48;10.75;;;10.90;82.30;;;;;;4976308;28;20038;-78
2021/03/04 00:05:11;;;;;;;21.35;9.63;;;10.80;82.10;;;;;;4976815;28;20074;-79
2021/03/04 00:07:38;;;;;;;23.35;10.68;;;10.90;81.80;;;;;;4976545;28;20043;-79
2021/03/04 00:10:15;;;;;;;27.35;10.88;;;10.90;81.90;;;;;;4976469;28;20047;-78
2021/03/04 00:12:42;;;;;;;22.83;11.25;;;10.80;82.00;;;;;;4974631;28;20031;-78
2021/03/04 00:15:10;;;;;;;23.55;11.07;;;10.80;82.10;;;;;;4975146;28;20039;-79
2021/03/04 00:17:36;;;;;;;25.52;11.25;;;10.80;82.10;;;;;;4976105;28;20047;-78
2021/03/04 00:20:06;;;;;;;30.45;12.27;;;10.70;82.30;;;;;;4974406;28;20138;-79
2021/03/04 00:22:32;;;;;;;22.08;11.27;;;10.70;82.30;;;;;;4974619;28;20031;-79
2021/03/04 00:24:58;;;;;;;22.60;11.90;;;10.70;82.30;;;;;;4974843;28;20178;-79
2021/03/04 00:27:24;;;;;;;24.10;12.35;;;10.60;82.50;;;;;;4975802;28;20526;-78
2021/03/04 00:29:49;;;;;;;25.42;12.07;;;10.60;83.30;;;;;;4974413;28;20073;-79
2021/03/04 00:32:15;;;;;;;31.38;12.13;;;10.50;82.90;;;;;;4976009;28;20436;-79
2021/03/04 00:34:41;;;;;;;27.20;11.40;;;10.50;82.90;;;;;;4975924;28;20045;-79
2021/03/04 00:37:07;;;;;;;27.63;12.20;;;10.50;83.10;;;;;;4976045;28;20369;-79
2021/03/04 00:39:33;;;;;;;21.73;11.88;;;10.40;83.10;;;;;;4975665;28;20133;-79
2021/03/04 00:41:59;;;;;;;30.05;13.30;;;10.40;83.50;;;;;;4975485;28;20120;-79
2021/03/04 00:44:25;;;;;;;27.30;11.60;;;10.30;83.60;;;;;;4975542;28;20423;-79
2021/03/04 00:46:50;;;;;;;25.67;12.88;;;10.30;83.90;;;;;;4975691;28;20117;-79
2021/03/04 00:49:16;;;;;;;27.35;12.00;;;10.20;83.90;;;;;;4974335;28;20522;-79
2021/03/04 00:51:42;;;;;;;26.48;11.85;;;10.20;84.10;;;;;;4976268;28;20039;-79
2021/03/04 00:54:08;;;;;;;21.88;10.85;;;10.20;84.20;;;;;;4975539;28;20575;-79
2021/03/04 00:56:36;;;;;;;29.83;11.95;;;10.10;84.20;;;;;;4975368;28;20107;-79
2021/03/04 00:59:02;;;;;;;24.30;12.50;;;10.10;84.50;;;;;;4975904;28;20051;-79
2021/03/04 01:01:28;;;;;;;26.27;11.20;;;10.10;84.40;;;;;;4974245;28;20050;-79
2021/03/04 01:03:54;;;;;;;33.33;12.23;;;10.10;84.40;;;;;;4974448;28;20035;-79
2021/03/04 01:06:20;;;;;;;25.55;11.30;;;10.10;84.40;;;;;;4974857;28;20038;-79
2021/03/04 01:08:47;;;;;;;27.63;12.00;;;10.10;84.40;;;;;;4975812;28;20050;-79
2021/03/04 01:11:14;;;;;;;26.90;11.93;;;10.10;84.40;;;;;;4974342;28;20038;-79
2021/03/04 01:13:41;;;;;;;23.77;12.00;;;10.00;84.40;;;;;;4977638;28;20043;-79
2021/03/04 01:16:08;;;;;;;32.65;11.10;;;10.00;84.90;;;;;;4978271;28;20038;-79
2021/03/04 01:18:34;;;;;;;24.88;11.48;;;10.00;84.90;;;;;;4979610;28;20043;-79
2021/03/04 01:21:00;;;;;;;22.77;12.07;;;9.90;85.10;;;;;;4982265;28;20106;-79
2021/03/04 01:23:26;;;;;;;28.42;12.45;;;9.90;85.50;;;;;;4983045;28;20043;-79
2021/03/04 01:25:52;;;;;;;29.58;12.27;;;9.90;85.60;;;;;;4981762;28;20515;-79
2021/03/04 01:28:18;;;;;;;29.88;12.02;;;9.90;85.60;;;;;;4981283;28;20035;-79
2021/03/04 01:30:44;;;;;;;22.13;11.13;;;9.90;85.70;;;;;;4982770;28;20042;-78
2021/03/04 01:33:10;;;;;;;23.75;12.02;;;9.90;85.60;;;;;;4997394;28;20097;-80
2021/03/04 01:35:35;;;;;;;30.10;12.10;;;9.90;85.70;;;;;;4981448;28;20035;-79
2021/03/04 01:38:01;;;;;;;27.20;12.02;;;9.90;85.90;;;;;;4977846;28;20586;-79
2021/03/04 01:40:27;;;;;;;22.83;11.15;;;9.90;85.90;;;;;;4978863;28;20039;-79
2021/03/04 01:42:54;;;;;;;28.25;12.45;;;9.90;86.00;;;;;;4978999;28;20031;-79
2021/03/04 01:45:20;;;;;;;25.73;13.45;;;9.90;86.10;;;;;;4979182;28;20452;-79
2021/03/04 01:47:52;;;;;;;27.83;12.40;;;9.80;86.00;;;;;;4978574;28;20121;-79
2021/03/04 01:50:18;;;;;;;27.58;12.68;;;9.70;86.30;;;;;;4977458;28;20043;-79
2021/03/04 01:52:45;;;;;;;28.17;12.30;;;9.70;86.40;;;;;;4978724;28;20040;-79
2021/03/04 01:55:17;;;;;;;23.02;11.30;;;9.70;86.50;;;;;;4978409;28;20038;-79
2021/03/04 01:57:44;;;;;;;25.77;12.45;;;9.60;86.60;;;;;;4978555;28;20046;-79
2021/03/04 02:00:11;;;;;;;25.77;13.10;;;9.70;86.70;;;;;;4979029;28;20047;-79
2021/03/04 02:02:37;;;;;;;24.50;12.18;;;9.60;86.70;;;;;;4978120;28;20074;-79
2021/03/04 02:05:07;;;;;;;29.40;13.95;;;9.60;86.70;;;;;;4978100;28;20487;-79
2021/03/04 02:07:54;;;;;;;26.58;12.98;;;9.50;86.90;;;;;;4976648;28;20147;-79
2021/03/04 02:10:40;;;;;;;22.45;12.82;;;9.50;87.20;;;;;;4978319;28;20038;-79
2021/03/04 02:13:28;;;;;;;31.80;14.13;;;9.50;87.30;;;;;;4978561;28;20077;-78
2021/03/04 02:15:59;;;;;;;21.95;13.18;;;9.40;87.50;;;;;;4978321;28;20034;-78
2021/03/04 02:18:29;;;;;;;33.25;15.25;;;9.40;87.50;;;;;;4976365;28;20042;-79
2021/03/04 02:21:21;;;;;;;37.10;14.43;;;9.30;87.70;;;;;;4977558;28;20061;-79
2021/03/04 02:24:09;;;;;;;30.60;13.82;;;9.30;87.70;;;;;;4954848;28;20038;-79
2021/03/04 02:27:00;;;;;;;28.75;14.50;;;9.30;88.10;;;;;;4978758;28;20043;-78
2021/03/04 02:29:29;;;;;;;26.75;15.43;;;9.30;88.00;;;;;;4976182;28;20050;-79
2021/03/04 02:31:56;;;;;;;36.72;14.93;;;9.30;88.20;;;;;;4978095;28;20499;-79
2021/03/04 02:34:25;;;;;;;37.15;15.55;;;9.20;88.00;;;;;;4977630;28;20078;-79
2021/03/04 02:36:53;;;;;;;35.83;15.02;;;9.20;88.20;;;;;;4977640;28;20050;-79
2021/03/04 02:39:20;;;;;;;30.67;13.70;;;9.20;88.30;;;;;;4977627;28;20035;-79
2021/03/04 02:41:47;;;;;;;32.92;14.68;;;9.20;88.30;;;;;;4978030;28;20039;-79
2021/03/04 02:44:14;;;;;;;32.90;15.65;;;9.20;88.30;;;;;;4992532;28;20045;-79
2021/03/04 02:46:41;;;;;;;30.00;14.82;;;9.10;88.30;;;;;;4976827;28;20035;-79
2021/03/04 02:49:08;;;;;;;29.35;14.68;;;9.10;88.40;;;;;;4975917;28;20043;-79
2021/03/04 02:51:36;;;;;;;29.52;14.73;;;9.10;88.50;;;;;;4976136;28;20035;-79
2021/03/04 02:54:03;;;;;;;31.85;15.07;;;9.10;88.40;;;;;;4976131;28;20034;-79
2021/03/04 02:56:31;;;;;;;32.42;14.95;;;9.10;88.60;;;;;;4981135;28;20073;-80
2021/03/04 02:59:01;;;;;;;29.35;15.30;;;9.10;88.60;;;;;;4988973;28;20100;-79
2021/03/04 03:01:28;;;;;;;34.60;15.38;;;9.00;88.50;;;;;;4995009;28;20045;-79
2021/03/04 03:03:55;;;;;;;31.63;16.02;;;9.00;88.60;;;;;;4996448;28;20096;-79
2021/03/04 03:06:26;;;;;;;29.10;14.80;;;9.00;88.80;;;;;;4996829;28;20541;-79
2021/03/04 03:08:54;;;;;;;31.67;15.60;;;9.00;88.90;;;;;;4995447;28;20030;-79
2021/03/04 03:11:20;;;;;;;35.45;16.17;;;9.00;89.10;;;;;;4995674;28;20041;-79
2021/03/04 03:13:54;;;;;;;30.13;15.50;;;8.90;89.10;;;;;;4996009;28;20041;-79
2021/03/04 03:16:21;;;;;;;27.48;15.57;;;8.90;89.20;;;;;;4995717;28;20089;-79
2021/03/04 03:18:47;;;;;;;30.05;15.88;;;8.90;89.30;;;;;;4998295;28;20050;-79
2021/03/04 03:21:13;;;;;;;34.53;15.48;;;8.90;89.20;;;;;;5003268;28;20134;-79
2021/03/04 03:23:39;;;;;;;32.70;16.10;;;8.90;89.20;;;;;;5002949;28;20069;-80
2021/03/04 03:26:05;;;;;;;29.90;14.43;;;8.90;89.30;;;;;;5003318;28;20084;-79
2021/03/04 03:28:31;;;;;;;28.33;15.55;;;8.90;89.10;;;;;;5004125;28;20068;-79
2021/03/04 03:30:57;;;;;;;35.10;16.35;;;8.90;89.20;;;;;;5003793;28;20049;-79
2021/03/04 03:33:24;;;;;;;38.00;16.05;;;8.90;89.30;;;;;;5002213;28;20450;-79
2021/03/04 03:35:50;;;;;;;34.00;16.25;;;8.80;89.20;;;;;;5003722;28;20038;-79
2021/03/04 03:38:17;;;;;;;36.47;16.50;;;8.80;89.30;;;;;;5002476;28;20045;-79
2021/03/04 03:40:47;;;;;;;36.60;16.35;;;8.80;89.20;;;;;;5002157;28;20093;-78
2021/03/04 03:43:16;;;;;;;39.42;15.52;;;8.80;89.90;;;;;;4998128;28;20038;-78
2021/03/04 03:45:47;;;;;;;31.30;16.70;;;8.80;89.30;;;;;;5000769;28;20038;-78
2021/03/04 03:48:20;;;;;;;31.45;16.08;;;8.70;89.30;;;;;;5001379;28;20398;-78
2021/03/04 03:50:52;;;;;;;32.30;15.90;;;8.70;89.50;;;;;;4996528;28;20395;-79
2021/03/04 03:53:18;;;;;;;34.00;16.08;;;8.60;89.70;;;;;;4995663;28;20112;-78
2021/03/04 03:55:49;;;;;;;36.42;16.55;;;8.60;89.70;;;;;;4994297;28;20529;-78
2021/03/04 03:58:19;;;;;;;36.40;15.55;;;8.60;89.80;;;;;;4996056;28;20046;-79
2021/03/04 04:00:46;;;;;;;37.15;15.63;;;8.60;90.00;;;;;;4995887;28;20074;-78
2021/03/04 04:03:12;;;;;;;28.15;16.15;;;8.50;90.00;;;;;;4994057;28;20039;-79
2021/03/04 04:05:38;;;;;;;31.77;16.00;;;8.50;90.00;;;;;;4994378;28;20030;-79
2021/03/04 04:08:04;;;;;;;31.70;16.50;;;8.50;90.00;;;;;;4995610;28;20124;-78
2021/03/04 04:10:33;;;;;;;27.17;16.23;;;8.40;90.10;;;;;;4994443;28;20120;-78
2021/03/04 04:12:59;;;;;;;35.28;17.40;;;8.40;90.50;;;;;;4995312;28;20503;-79
2021/03/04 04:15:26;;;;;;;32.92;16.10;;;8.40;90.30;;;;;;4995248;28;20046;-79
2021/03/04 04:17:56;;;;;;;32.80;15.77;;;8.40;90.10;;;;;;4995414;28;20506;-78
2021/03/04 04:20:23;;;;;;;35.03;16.15;;;8.40;90.10;;;;;;4995359;28;20134;-79
2021/03/04 04:22:51;;;;;;;44.10;17.40;;;8.40;90.00;;;;;;4995547;28;20128;-79
2021/03/04 04:25:22;;;;;;;30.83;16.33;;;8.40;90.00;;;;;;4994429;28;20487;-79
2021/03/04 04:27:50;;;;;;;34.35;15.95;;;8.40;90.10;;;;;;4994247;28;20129;-79
2021/03/04 04:30:17;;;;;;;33.85;16.25;;;8.40;90.00;;;;;;4995457;28;20559;-79
2021/03/04 04:32:44;;;;;;;35.53;16.52;;;8.40;90.00;;;;;;4995871;28;20061;-79
2021/03/04 04:35:13;;;;;;;32.47;16.35;;;8.40;90.00;;;;;;4995367;28;20042;-79
2021/03/04 04:37:39;;;;;;;35.55;16.27;;;8.30;90.00;;;;;;4995843;28;20582;-79
2021/03/04 04:40:06;;;;;;;32.47;16.73;;;8.30;90.00;;;;;;4993831;28;20051;-79
2021/03/04 04:42:32;;;;;;;31.13;15.93;;;8.30;90.10;;;;;;4995622;28;20034;-79
2021/03/04 04:44:58;;;;;;;32.53;15.30;;;8.30;90.00;;;;;;4995210;28;20045;-79
2021/03/04 04:47:24;;;;;;;36.58;16.70;;;8.30;90.00;;;;;;4993900;28;20137;-79
2021/03/04 04:49:50;;;;;;;39.03;17.15;;;8.30;90.00;;;;;;4995759;28;20117;-79
2021/03/04 04:52:16;;;;;;;31.50;16.17;;;8.30;90.00;;;;;;4994339;28;20505;-79
2021/03/04 04:54:42;;;;;;;32.45;16.73;;;8.30;90.10;;;;;;4998038;28;20038;-79
2021/03/04 04:57:08;;;;;;;33.45;17.55;;;8.30;90.20;;;;;;4999627;28;20069;-79
2021/03/04 04:59:34;;;;;;;40.08;17.02;;;8.30;90.20;;;;;;4999182;28;20031;-78
2021/03/04 05:02:00;;;;;;;31.92;15.52;;;8.30;90.20;;;;;;4999120;28;20053;-78
2021/03/04 05:04:25;;;;;;;29.67;15.73;;;8.30;90.10;;;;;;4998009;28;20515;-79
2021/03/04 05:06:51;;;;;;;29.55;15.38;;;8.30;90.00;;;;;;4999111;28;20042;-78
2021/03/04 05:09:17;;;;;;;35.50;16.65;;;8.20;90.00;;;;;;4997808;28;20069;-79
2021/03/04 05:11:43;;;;;;;32.90;17.00;;;8.20;90.20;;;;;;4998336;28;20047;-79
2021/03/04 05:14:09;;;;;;;31.10;16.27;;;8.10;90.30;;;;;;4997704;28;20042;-79
2021/03/04 05:16:35;;;;;;;36.25;17.40;;;8.10;90.30;;;;;;4999087;28;20050;-78
2021/03/04 05:19:00;;;;;;;33.80;16.60;;;8.10;90.30;;;;;;4997145;28;20049;-79
2021/03/04 05:21:26;;;;;;;26.88;15.57;;;8.10;90.20;;;;;;5002710;28;20042;-78
2021/03/04 05:23:52;;;;;;;35.30;17.05;;;8.10;90.20;;;;;;5001023;28;20045;-79
2021/03/04 05:26:18;;;;;;;28.55;16.35;;;8.10;90.10;;;;;;5002461;28;20222;-78
2021/03/04 05:28:44;;;;;;;31.77;16.13;;;8.10;90.10;;;;;;5000780;28;20042;-79
2021/03/04 05:31:09;;;;;;;35.35;17.15;;;8.10;90.20;;;;;;5001145;28;20038;-78
2021/03/04 05:33:35;;;;;;;36.42;17.80;;;8.00;90.40;;;;;;5000805;28;20042;-78
2021/03/04 05:36:01;;;;;;;41.60;18.00;;;7.90;90.40;;;;;;5002098;28;20422;-78
2021/03/04 05:38:27;;;;;;;37.63;18.77;;;7.80;90.50;;;;;;4998186;28;20042;-78
2021/03/04 05:40:53;;;;;;;38.42;18.33;;;7.80;90.60;;;;;;4998312;28;20033;-78
2021/03/04 05:43:19;;;;;;;32.47;18.15;;;7.80;90.80;;;;;;4998398;28;20052;-79
2021/03/04 05:45:48;;;;;;;34.97;19.20;;;7.70;91.00;;;;;;4997992;28;20383;-79
2021/03/04 05:48:19;;;;;;;32.90;18.92;;;7.70;91.00;;;;;;4997054;28;20034;-78
2021/03/04 05:50:58;;;;;;;34.28;18.98;;;7.60;91.00;;;;;;4997384;28;20596;-79
2021/03/04 05:53:24;;;;;;;31.23;18.77;;;7.60;91.10;;;;;;4997800;28;20525;-79
2021/03/04 05:55:51;;;;;;;39.38;20.58;;;7.60;91.30;;;;;;4996639;28;20042;-78
2021/03/04 05:58:18;;;;;;;33.10;20.38;;;7.60;91.10;;;;;;4997954;28;20039;-79
2021/03/04 06:00:44;;;;;;;39.33;20.63;;;7.50;91.20;;;;;;4996689;28;20045;-79
2021/03/04 06:03:11;;;;;;;35.80;19.75;;;7.50;91.30;;;;;;4996273;28;20034;-79
2021/03/04 06:05:37;;;;;;;39.03;20.27;;;7.40;91.50;;;;;;4997137;28;20479;-79
2021/03/04 06:08:05;;;;;;;39.92;19.42;;;7.40;91.40;;;;;;5000748;28;20069;-78
2021/03/04 06:10:32;;;;;;;36.13;17.67;;;7.40;91.50;;;;;;5013429;28;20057;-79
2021/03/04 06:12:59;;;;;;;42.80;19.25;;;7.40;91.50;;;;;;5013684;28;20048;-78
2021/03/04 06:15:26;;;;;;;38.17;18.58;;;7.30;91.50;;;;;;5011569;28;20105;-79
2021/03/04 06:18:01;;;;;;;31.38;18.90;;;7.20;91.70;;;;;;5011596;28;20039;-78
2021/03/04 06:20:43;;;;;;;29.95;18.83;;;7.10;92.00;;;;;;4998765;28;20062;-78
2021/03/04 06:23:09;;;;;;;30.08;17.67;;;7.10;91.90;;;;;;4997388;28;20042;-78
2021/03/04 06:25:36;;;;;;;24.13;17.30;;;7.10;91.80;;;;;;4997344;28;20038;-79
2021/03/04 06:28:03;;;;;;;24.38;16.27;;;7.00;91.80;;;;;;5007654;28;20075;-78
2021/03/04 06:30:36;;;;;;;23.55;18.02;;;7.00;91.80;;;;;;5001715;28;20049;-78
2021/03/04 06:33:20;;;;;;;26.27;17.85;;;6.90;91.70;;;;;;4999420;28;20443;-78
2021/03/04 06:35:50;;;;;;;25.42;17.45;;;6.90;91.90;;;;;;5000518;28;20034;-81
2021/03/04 06:38:21;;;;;;;24.88;17.77;;;6.80;91.80;;;;;;4999272;28;20116;-80
2021/03/04 06:40:49;;;;;;;32.58;18.35;;;6.80;91.90;;;;;;4995842;28;20046;-81
2021/03/04 06:43:33;;;;;;;48.28;19.67;;;6.80;92.20;;;;;;4997565;28;20027;-81
2021/03/04 06:46:06;;;;;;;32.67;18.73;;;6.80;92.20;;;;;;5001137;28;20442;-81
2021/03/04 06:48:32;;;;;;;41.70;20.42;;;6.80;92.20;;;;;;5000076;28;20037;-82
2021/03/04 06:51:01;;;;;;;31.23;20.00;;;6.80;92.40;;;;;;4999140;28;20049;-80
2021/03/04 06:53:29;;;;;;;31.38;19.10;;;6.70;92.60;;;;;;4995965;28;20040;-81
2021/03/04 06:56:01;;;;;;;23.25;18.50;;;6.80;92.60;;;;;;4996178;28;20129;-81
2021/03/04 06:58:38;;;;;;;23.60;18.50;;;6.90;92.50;;;;;;4997413;28;20034;-80
2021/03/04 07:01:07;;;;;;;22.23;16.92;;;7.00;92.30;;;;;;4995867;28;20042;-80
2021/03/04 07:03:45;;;;;;;23.48;17.50;;;7.00;92.20;;;;;;4995916;28;20031;-80
2021/03/04 07:06:17;;;;;;;30.08;17.50;;;7.00;92.00;;;;;;4997669;28;20369;-81
2021/03/04 07:08:47;;;;;;;20.50;15.73;;;7.10;91.90;;;;;;5002490;28;20047;-80
2021/03/04 07:11:24;;;;;;;22.52;15.40;;;7.20;91.80;;;;;;4996558;28;20034;-78
2021/03/04 07:14:12;;;;;;;20.52;14.40;;;7.30;91.50;;;;;;4997416;28;20034;-74
2021/03/04 07:16:45;;;;;;;22.02;15.30;;;7.30;91.50;;;;;;4997075;28;20042;-81
2021/03/04 07:19:13;;;;;;;26.08;16.52;;;7.30;91.50;;;;;;4999020;28;20046;-76
2021/03/04 07:21:47;;;;;;;25.85;16.45;;;7.40;91.50;;;;;;4997024;28;20062;-73
2021/03/04 07:24:13;;;;;;;21.67;14.55;;;7.50;91.40;;;;;;4994836;28;20546;-74
2021/03/04 07:26:39;;;;;;;24.77;14.38;;;7.60;91.30;;;;;;4998424;28;20045;-76
2021/03/04 07:29:11;;;;;;;23.35;13.95;;;7.70;91.20;;;;;;4998123;28;20577;-78
2021/03/04 07:31:45;;;;;;;22.83;14.40;;;7.80;91.00;;;;;;4995087;28;20137;-75
2021/03/04 07:34:12;;;;;;;21.33;12.60;;;7.80;91.00;;;;;;4995953;28;20101;-76
2021/03/04 07:36:48;;;;;;;21.65;14.25;;;7.90;90.70;;;;;;4997504;28;20076;-76
2021/03/04 07:39:14;;;;;;;23.48;12.95;;;8.00;90.60;;;;;;4994497;28;20390;-75
2021/03/04 07:41:44;;;;;;;23.88;12.73;;;8.00;90.70;;;;;;4994385;28;20066;-75
2021/03/04 07:44:23;;;;;;;22.75;12.27;;;8.10;90.50;;;;;;4995142;28;20037;-75
2021/03/04 07:46:54;;;;;;;23.58;13.45;;;8.10;90.50;;;;;;4994703;28;20046;-76
2021/03/04 07:49:43;;;;;;;18.45;13.02;;;8.10;90.40;;;;;;4993758;28;20057;-75
2021/03/04 07:52:12;;;;;;;17.25;12.88;;;8.10;90.40;;;;;;4995098;28;20065;-76
2021/03/04 07:54:39;;;;;;;24.00;12.80;;;8.20;90.40;;;;;;4995382;28;20117;-75
2021/03/04 07:57:07;;;;;;;23.50;12.88;;;8.30;90.40;;;;;;4995514;28;20093;-75
2021/03/04 07:59:34;;;;;;;21.83;12.75;;;8.40;90.30;;;;;;4994350;28;20034;-75
2021/03/04 08:02:02;;;;;;;19.65;12.75;;;8.40;90.20;;;;;;4995314;28;20046;-75
2021/03/04 08:04:30;;;;;;;26.83;12.70;;;8.50;90.10;;;;;;4995154;28;20038;-74
2021/03/04 08:06:58;;;;;;;18.80;12.30;;;8.50;90.00;;;;;;4995518;28;20117;-74
2021/03/04 08:09:34;;;;;;;19.08;12.73;;;8.60;89.90;;;;;;4995541;28;20034;-76
2021/03/04 08:12:13;;;;;;;20.42;12.38;;;8.60;89.90;;;;;;4995541;28;20491;-76
2021/03/04 08:14:41;;;;;;;16.40;11.77;;;8.60;89.70;;;;;;4993845;28;20053;-76
2021/03/04 08:17:08;;;;;;;20.92;13.30;;;8.70;89.30;;;;;;4995696;28;20045;-76
2021/03/04 08:19:35;;;;;;;19.10;12.43;;;8.80;88.80;;;;;;4993751;28;20057;-77
2021/03/04 08:22:04;;;;;;;21.10;12.50;;;8.70;89.10;;;;;;4995325;28;20137;-77
2021/03/04 08:24:32;;;;;;;20.13;12.13;;;8.80;88.90;;;;;;4994110;28;20134;-76
2021/03/04 08:26:59;;;;;;;19.83;11.43;;;8.80;88.10;;;;;;4994076;28;20416;-76
2021/03/04 08:29:25;;;;;;;20.50;10.90;;;8.90;87.70;;;;;;4993917;28;20062;-76
2021/03/04 08:31:56;;;;;;;17.13;10.27;;;9.00;87.40;;;;;;4995207;28;20124;-76
2021/03/04 08:34:33;;;;;;;18.88;9.52;;;9.00;87.00;;;;;;4995068;28;20053;-76
2021/03/04 08:36:59;;;;;;;16.77;8.82;;;9.20;86.80;;;;;;4994815;28;20581;-76
2021/03/04 08:39:34;;;;;;;14.80;8.38;;;9.30;86.00;;;;;;4995225;28;20042;-76
2021/03/04 08:42:07;;;;;;;16.70;8.68;;;9.40;85.50;;;;;;4995489;28;20181;-76
2021/03/04 08:44:33;;;;;;;13.32;8.52;;;9.50;84.90;;;;;;4995345;28;20037;-75
2021/03/04 08:46:59;;;;;;;11.77;8.55;;;9.60;84.40;;;;;;4995378;28;20070;-75
2021/03/04 08:49:25;;;;;;;18.10;9.02;;;9.70;84.00;;;;;;4994966;28;20034;-75
2021/03/04 08:51:52;;;;;;;18.48;10.20;;;9.90;83.40;;;;;;4994232;28;20038;-75
2021/03/04 08:54:26;;;;;;;22.67;10.00;;;10.00;83.00;;;;;;4995056;28;20487;-76
2021/03/04 08:57:04;;;;;;;23.25;9.38;;;10.10;82.60;;;;;;4993827;28;20491;-75
2021/03/04 08:59:31;;;;;;;18.80;9.52;;;10.10;82.70;;;;;;4995087;28;20117;-75
2021/03/04 09:01:59;;;;;;;19.77;9.07;;;10.40;81.60;;;;;;4993983;28;20121;-75
2021/03/04 09:04:28;;;;;;;21.80;10.48;;;10.40;81.60;;;;;;4995372;28;20104;-75
2021/03/04 09:06:55;;;;;;;23.65;10.07;;;10.30;81.40;;;;;;4994386;28;20042;-75
2021/03/04 09:09:26;;;;;;;20.92;11.32;;;10.40;81.90;;;;;;4995345;28;20034;-75
2021/03/04 09:11:53;;;;;;;21.73;10.98;;;10.50;81.50;;;;;;4994952;28;20069;-75
2021/03/04 09:14:26;;;;;;;21.75;12.77;;;10.70;80.50;;;;;;4995007;28;20045;-75
2021/03/04 09:16:52;;;;;;;24.00;13.30;;;10.90;79.90;;;;;;4995050;28;20093;-75
2021/03/04 09:19:29;;;;;;;20.20;13.02;;;11.00;79.50;;;;;;4994758;28;20046;-75
2021/03/04 09:22:03;;;;;;;22.77;13.25;;;11.20;78.80;;;;;;4995162;28;20042;-75
2021/03/04 09:24:32;;;;;;;25.73;12.18;;;11.20;78.30;;;;;;4994101;28;20034;-76
2021/03/04 09:27:00;;;;;;;22.02;12.35;;;11.40;77.00;;;;;;4995418;28;20038;-76
2021/03/04 09:29:26;;;;;;;17.20;11.02;;;11.60;76.10;;;;;;4995259;28;20026;-75
2021/03/04 09:31:53;;;;;;;18.98;11.02;;;11.70;75.90;;;;;;4995747;28;20057;-75
2021/03/04 09:34:47;;;;;;;18.05;10.02;;;11.80;74.90;;;;;;4995525;28;20049;-76
2021/03/04 09:37:27;;;;;;;16.92;7.97;;;12.00;74.00;;;;;;4995962;28;20145;-75
2021/03/04 09:39:55;;;;;;;17.13;9.13;;;12.10;72.30;;;;;;4996038;28;20517;-76
2021/03/04 09:42:30;;;;;;;18.17;8.40;;;12.20;71.90;;;;;;4998175;28;20042;-76
2021/03/04 09:44:59;;;;;;;13.70;6.95;;;12.40;71.50;;;;;;4996890;28;20121;-76
2021/03/04 09:47:30;;;;;;;16.05;7.82;;;12.50;69.70;;;;;;4998142;28;20145;-76
2021/03/04 09:50:00;;;;;;;17.65;7.28;;;12.70;70.00;;;;;;4998281;28;20046;-75
2021/03/04 09:52:31;;;;;;;14.55;7.63;;;12.70;69.80;;;;;;4998285;28;20081;-76
2021/03/04 09:55:17;;;;;;;13.73;6.97;;;12.80;69.80;;;;;;4996133;28;20101;-75
2021/03/04 09:57:45;;;;;;;15.88;7.00;;;12.90;69.40;;;;;;4997303;28;20069;-76
2021/03/04 10:00:20;;;;;;;18.98;6.90;;;13.10;68.60;;;;;;4997481;28;20042;-76
2021/03/04 10:02:48;;;;;;;18.08;6.97;;;13.40;66.70;;;;;;4997426;28;20435;-76
2021/03/04 10:05:17;;;;;;;18.33;5.75;;;13.50;64.60;;;;;;4997624;28;20049;-76
2021/03/04 10:07:43;;;;;;;14.95;6.25;;;13.70;63.70;;;;;;4997283;28;20121;-76
2021/03/04 10:10:18;;;;;;;20.95;5.70;;;13.70;62.40;;;;;;4996267;28;20065;-75
2021/03/04 10:12:56;;;;;;;14.48;5.78;;;13.60;60.90;;;;;;4998058;28;20046;-76
2021/03/04 10:15:28;;;;;;;11.52;5.28;;;13.70;59.00;;;;;;4997610;28;20038;-75
2021/03/04 10:17:55;;;;;;;13.70;4.47;;;13.70;59.00;;;;;;4997261;28;20121;-75
2021/03/04 10:20:22;;;;;;;11.43;4.20;;;13.70;57.60;;;;;;4997315;28;20054;-75
2021/03/04 10:22:49;;;;;;;14.15;4.30;;;14.00;56.60;;;;;;4997752;28;20130;-75
2021/03/04 10:25:15;;;;;;;18.52;4.45;;;13.90;56.10;;;;;;4996024;28;20042;-75
2021/03/04 10:27:41;;;;;;;11.82;4.00;;;14.10;56.20;;;;;;4997816;28;20049;-75
2021/03/04 10:30:13;;;;;;;13.27;4.22;;;14.30;55.90;;;;;;4996056;28;20503;-74
2021/03/04 10:32:39;;;;;;;13.20;4.78;;;14.50;55.40;;;;;;4997518;28;20061;-75
2021/03/04 10:35:10;;;;;;;12.60;4.15;;;14.60;54.80;;;;;;4997337;28;20034;-75
2021/03/04 10:37:37;;;;;;;12.13;4.22;;;14.80;55.10;;;;;;4997525;28;20042;-75
2021/03/04 10:40:05;;;;;;;24.05;5.30;;;15.00;54.50;;;;;;4995776;28;20042;-75
2021/03/04 10:42:30;;;;;;;9.93;4.00;;;15.50;53.20;;;;;;4996956;28;20514;-75
2021/03/04 10:44:59;;;;;;;8.48;4.07;;;15.60;53.00;;;;;;4995504;28;20030;-75
2021/03/04 10:47:29;;;;;;;14.25;4.32;;;15.40;53.30;;;;;;4997157;28;20503;-75
2021/03/04 10:49:55;;;;;;;19.73;7.30;;;15.10;53.90;;;;;;4996053;28;20034;-75
2021/03/04 10:52:22;;;;;;;11.25;4.13;;;15.00;55.10;;;;;;4996786;28;20143;-75
2021/03/04 10:54:50;;;;;;;12.57;4.72;;;15.20;54.60;;;;;;4996512;28;20246;-75
2021/03/04 10:57:16;;;;;;;16.10;5.35;;;15.10;55.20;;;;;;4997151;28;20459;-75
2021/03/04 10:59:41;;;;;;;22.90;8.95;;;15.20;54.50;;;;;;4996993;28;20034;-74
2021/03/04 11:02:07;;;;;;;19.52;8.40;;;15.20;54.30;;;;;;4996356;28;20038;-75
2021/03/04 11:04:33;;;;;;;28.27;12.63;;;15.30;54.60;;;;;;4996683;28;20031;-75
2021/03/04 11:06:59;;;;;;;11.25;4.70;;;15.20;54.90;;;;;;4995436;28;20403;-74
2021/03/04 11:09:25;;;;;;;12.82;4.95;;;15.30;54.20;;;;;;4996283;28;20089;-75
2021/03/04 11:11:51;;;;;;;9.68;4.32;;;15.50;53.60;;;;;;4995652;28;20046;-75
2021/03/04 11:14:17;;;;;;;13.35;4.13;;;15.70;52.70;;;;;;4996488;28;20508;-75
2021/03/04 11:16:43;;;;;;;13.70;4.38;;;15.80;51.30;;;;;;4996524;28;20046;-77
2021/03/04 11:19:10;;;;;;;15.40;4.10;;;15.80;50.60;;;;;;4998257;28;20045;-75
2021/03/04 11:21:37;;;;;;;10.45;3.63;;;15.60;51.40;;;;;;4998350;28;20081;-75
2021/03/04 11:24:05;;;;;;;10.38;3.55;;;15.50;51.50;;;;;;4995252;28;20034;-75
2021/03/04 11:26:31;;;;;;;10.70;3.22;;;15.40;51.00;;;;;;4999915;28;20094;-74
2021/03/04 11:28:57;;;;;;;14.55;4.30;;;15.30;50.30;;;;;;4990004;28;20077;-75
2021/03/04 11:31:23;;;;;;;18.00;6.38;;;15.30;51.40;;;;;;4983204;28;20046;-74
2021/03/04 11:33:49;;;;;;;13.20;6.45;;;15.20;52.30;;;;;;4978382;28;20058;-75
2021/03/04 11:36:15;;;;;;;14.40;4.63;;;15.30;52.60;;;;;;4978611;28;20073;-74
2021/03/04 11:38:40;;;;;;;13.98;4.07;;;15.20;53.10;;;;;;4983494;28;20122;-75
2021/03/04 11:41:06;;;;;;;12.25;4.72;;;15.20;52.60;;;;;;4983692;28;20333;-75
2021/03/04 11:43:32;;;;;;;10.25;4.03;;;15.20;53.10;;;;;;4994784;28;20086;-76
2021/03/04 11:45:58;;;;;;;13.65;5.20;;;15.40;51.90;;;;;;4978560;28;20045;-76
2021/03/04 11:48:24;;;;;;;26.30;9.43;;;15.50;51.70;;;;;;4977365;28;20042;-77
2021/03/04 11:50:50;;;;;;;13.23;5.32;;;15.80;49.70;;;;;;4975820;28;20121;-76
2021/03/04 11:53:16;;;;;;;17.33;5.53;;;15.90;49.60;;;;;;4975771;28;20039;-76
2021/03/04 11:55:42;;;;;;;30.63;11.48;;;16.10;48.50;;;;;;4975512;28;20111;-76
2021/03/04 11:58:08;;;;;;;12.40;4.50;;;16.40;49.50;;;;;;4975890;28;20043;-76
2021/03/04 12:00:34;;;;;;;13.35;4.20;;;16.40;50.10;;;;;;4975852;28;20467;-76
2021/03/04 12:03:00;;;;;;;10.32;3.50;;;16.40;49.30;;;;;;4974887;28;20506;-76
2021/03/04 12:05:25;;;;;;;12.43;3.90;;;16.40;47.70;;;;;;4975658;28;20405;-76
2021/03/04 12:07:51;;;;;;;8.60;3.42;;;16.10;48.70;;;;;;4975746;28;20089;-76
2021/03/04 12:10:17;;;;;;;9.95;4.18;;;16.10;49.20;;;;;;4976047;28;20039;-76
2021/03/04 12:12:43;;;;;;;12.70;4.95;;;16.30;48.50;;;;;;4975707;28;20480;-76
2021/03/04 12:15:09;;;;;;;11.02;3.65;;;16.40;48.40;;;;;;4990569;28;20035;-76
2021/03/04 12:17:35;;;;;;;11.55;5.55;;;16.50;48.00;;;;;;4975562;28;20382;-76
2021/03/04 12:20:03;;;;;;;14.05;3.20;;;16.50;47.40;;;;;;4975620;28;20047;-76
2021/03/04 12:22:30;;;;;;;10.77;3.70;;;16.50;47.50;;;;;;4975946;28;20070;-76
2021/03/04 12:24:56;;;;;;;13.43;3.53;;;16.30;45.90;;;;;;4976827;28;20400;-80
2021/03/04 12:27:21;;;;;;;7.82;3.40;;;16.10;47.40;;;;;;4905961;28;20423;-79
2021/03/04 12:29:49;;;;;;;14.27;5.32;;;15.90;48.40;;;;;;4988106;28;20031;-79
2021/03/04 12:32:16;;;;;;;14.50;4.78;;;16.00;48.50;;;;;;4966924;28;20530;-80
2021/03/04 12:34:42;;;;;;;9.48;3.33;;;16.10;47.80;;;;;;4973902;28;20126;-79
2021/03/04 12:37:07;;;;;;;8.98;3.35;;;16.50;47.10;;;;;;4973902;28;20054;-80
2021/03/04 12:39:33;;;;;;;7.97;3.20;;;16.50;47.60;;;;;;4973235;28;20098;-79
2021/03/04 12:41:59;;;;;;;8.93;3.75;;;16.40;48.00;;;;;;4975355;28;20065;-79